createdAt,value
2022-12-11T00:00:26.465Z,85.27
2022-12-11T00:04:27.904Z,85.46
2022-12-11T00:08:30.654Z,85.22
2022-12-11T00:12:32.055Z,85.11
2022-12-11T00:16:33.514Z,85.64
2022-12-11T00:20:34.896Z,85.47
2022-12-11T00:24:37.628Z,85.39
2022-12-11T00:28:39.072Z,85.39
2022-12-11T00:32:40.567Z,85.51
2022-12-11T00:36:41.968Z,85.90
2022-12-11T00:40:45.154Z,86.16
2022-12-11T00:44:46.542Z,86.36
2022-12-11T00:48:47.940Z,84.46
2022-12-11T00:52:49.320Z,85.22
2022-12-11T00:56:52.084Z,86.60
2022-12-11T01:00:53.521Z,86.55
2022-12-11T01:04:55.002Z,85.38
2022-12-11T01:08:57.217Z,84.85
2022-12-11T01:13:01.247Z,84.80
2022-12-11T01:17:02.759Z,86.59
2022-12-11T01:21:07.650Z,86.17
2022-12-11T01:25:09.483Z,86.58
2022-12-11T01:29:12.396Z,86.56
2022-12-11T01:33:13.734Z,87.32
2022-12-11T01:37:15.146Z,86.97
2022-12-11T01:41:17.076Z,87.11
2022-12-11T01:45:27.719Z,85.84
2022-12-11T01:49:29.364Z,86.62
2022-12-11T01:53:33.298Z,85.93
2022-12-11T01:57:34.806Z,85.59
2022-12-11T02:01:40.695Z,86.33
2022-12-11T02:05:42.162Z,86.22
2022-12-11T02:09:45.005Z,86.17
2022-12-11T02:13:51.734Z,86.46
2022-12-11T02:18:00.179Z,87.14
2022-12-11T02:22:03.086Z,86.65
2022-12-11T02:26:10.309Z,86.31
2022-12-11T02:30:14.010Z,86.46
2022-12-11T02:34:18.191Z,87.18
2022-12-11T02:38:23.031Z,87.78
2022-12-11T02:42:28.578Z,87.60
2022-12-11T02:46:34.087Z,88.02
2022-12-11T02:50:37.594Z,86.40
2022-12-11T02:54:40.112Z,88.35
2022-12-11T02:58:45.527Z,88.68
2022-12-11T03:02:48.365Z,88.41
2022-12-11T03:06:51.567Z,88.38
2022-12-11T03:10:52.953Z,88.20
2022-12-11T03:14:54.477Z,87.99
2022-12-11T03:19:02.015Z,87.79
2022-12-11T03:23:08.356Z,88.03
2022-12-11T03:27:14.504Z,88.47
2022-12-11T03:31:21.146Z,88.49
2022-12-11T03:35:26.320Z,88.30
2022-12-11T03:39:31.037Z,88.36
2022-12-11T03:43:33.106Z,88.91
2022-12-11T03:47:34.918Z,88.69
2022-12-11T03:51:38.030Z,87.37
2022-12-11T03:55:39.991Z,87.61
2022-12-11T03:59:41.640Z,87.70
2022-12-11T04:03:43.020Z,88.13
2022-12-11T04:07:45.837Z,86.98
2022-12-11T04:11:47.254Z,87.59
2022-12-11T04:15:48.800Z,88.12
2022-12-11T04:19:50.245Z,88.33
2022-12-11T04:23:52.965Z,88.64
2022-12-11T04:27:54.351Z,89.06
2022-12-11T04:31:55.744Z,88.33
2022-12-11T04:35:57.329Z,88.46
2022-12-11T04:40:00.069Z,88.10
2022-12-11T04:44:01.504Z,86.97
2022-12-11T04:48:02.895Z,88.15
2022-12-11T04:52:04.534Z,88.21
2022-12-11T04:56:08.107Z,88.35
2022-12-11T05:00:10.565Z,88.71
2022-12-11T05:04:12.058Z,88.29
2022-12-11T05:08:13.474Z,88.08
2022-12-11T05:12:16.248Z,88.05
2022-12-11T05:16:17.669Z,88.33
2022-12-11T05:20:19.125Z,88.08
2022-12-11T05:24:20.536Z,88.28
2022-12-11T05:28:23.815Z,87.79
2022-12-11T05:32:25.210Z,88.36
2022-12-11T05:36:27.598Z,88.21
2022-12-11T05:40:29.077Z,88.34
2022-12-11T05:44:31.826Z,87.60
2022-12-11T05:48:33.207Z,86.84
2022-12-11T05:52:34.586Z,86.71
2022-12-11T05:56:36.296Z,86.76
2022-12-11T06:00:41.075Z,87.73
2022-12-11T06:04:42.461Z,87.78
2022-12-11T06:08:43.821Z,87.45
2022-12-11T06:12:45.169Z,87.26
2022-12-11T06:16:47.936Z,87.71
2022-12-11T06:20:49.351Z,88.10
2022-12-11T06:24:50.724Z,87.87
2022-12-11T06:28:52.730Z,87.88
2022-12-11T06:32:55.477Z,87.83
2022-12-11T06:36:56.822Z,87.96
2022-12-11T06:40:59.486Z,88.38
2022-12-11T06:45:00.924Z,87.91
2022-12-11T06:49:03.664Z,88.08
2022-12-11T06:53:05.076Z,88.12
2022-12-11T06:57:06.424Z,87.92
2022-12-11T07:01:13.898Z,88.53
2022-12-11T07:05:16.670Z,88.11
2022-12-11T07:09:18.073Z,87.94
2022-12-11T07:13:19.463Z,87.80
2022-12-11T07:17:20.792Z,88.94
2022-12-11T07:21:23.521Z,88.85
2022-12-11T07:25:24.916Z,88.80
2022-12-11T07:29:26.321Z,88.38
2022-12-11T07:33:27.649Z,87.37
2022-12-11T07:37:30.425Z,87.82
2022-12-11T07:41:31.808Z,88.95
2022-12-11T07:45:33.229Z,89.07
2022-12-11T07:49:34.629Z,89.31
2022-12-11T07:53:37.439Z,88.71
2022-12-11T07:57:38.878Z,88.77
2022-12-11T08:01:40.755Z,88.79
2022-12-11T08:05:46.553Z,88.38
2022-12-11T08:09:49.284Z,87.62
2022-12-11T08:13:50.650Z,87.56
2022-12-11T08:17:52.023Z,86.90
2022-12-11T08:21:53.420Z,87.57
2022-12-11T08:25:56.131Z,87.44
2022-12-11T08:29:57.533Z,87.74
2022-12-11T08:33:58.958Z,87.23
2022-12-11T08:38:00.301Z,86.81
2022-12-11T08:42:03.019Z,86.72
2022-12-11T08:46:04.652Z,85.73
2022-12-11T08:50:06.432Z,85.83
2022-12-11T08:54:09.361Z,86.70
2022-12-11T08:58:12.199Z,85.25
2022-12-11T09:02:13.633Z,84.80
2022-12-11T09:06:16.176Z,84.65
2022-12-11T09:10:17.619Z,82.98
2022-12-11T09:14:20.342Z,82.55
2022-12-11T09:18:21.711Z,84.11
2022-12-11T09:22:23.106Z,83.44
2022-12-11T09:26:25.017Z,84.79
2022-12-11T09:30:27.738Z,85.71
2022-12-11T09:34:29.730Z,86.01
2022-12-11T09:38:31.584Z,84.97
2022-12-11T09:42:42.216Z,84.32
2022-12-11T09:46:45.516Z,83.36
2022-12-11T09:50:47.913Z,81.87
2022-12-11T09:54:50.511Z,80.46
2022-12-11T09:58:58.062Z,79.71
2022-12-11T10:03:09.640Z,81.92
2022-12-11T10:07:12.292Z,80.03
2022-12-11T10:11:22.769Z,80.32
2022-12-11T10:15:30.793Z,80.45
2022-12-11T10:19:34.329Z,79.18
2022-12-11T10:23:38.370Z,79.64
2022-12-11T10:27:40.384Z,79.72
2022-12-11T10:31:46.598Z,80.58
2022-12-11T10:35:50.503Z,80.19
2022-12-11T10:39:54.037Z,80.65
2022-12-11T10:43:55.455Z,81.80
2022-12-11T10:48:04.178Z,82.87
2022-12-11T10:52:11.585Z,83.63
2022-12-11T10:56:13.400Z,84.30
2022-12-11T11:00:28.679Z,84.17
2022-12-11T11:04:31.406Z,85.21
2022-12-11T11:08:41.350Z,83.98
2022-12-11T11:12:43.930Z,83.21
2022-12-11T11:16:46.609Z,81.88
2022-12-11T11:20:48.409Z,79.31
2022-12-11T11:24:55.579Z,79.90
2022-12-11T11:28:57.140Z,79.64
2022-12-11T11:32:59.720Z,77.87
2022-12-11T11:37:01.120Z,75.55
2022-12-11T11:41:15.049Z,74.60
2022-12-11T11:45:20.487Z,73.98
2022-12-11T11:49:25.643Z,73.33
2022-12-11T11:53:30.325Z,72.99
2022-12-11T11:57:35.488Z,73.08
2022-12-11T12:01:37.122Z,72.98
2022-12-11T12:05:43.253Z,71.00
2022-12-11T12:09:49.327Z,71.28
2022-12-11T12:13:57.307Z,71.11
2022-12-11T12:18:03.895Z,71.82
2022-12-11T12:22:11.954Z,71.23
2022-12-11T12:26:17.048Z,72.63
2022-12-11T12:30:22.871Z,70.47
2022-12-11T12:34:33.948Z,70.10
2022-12-11T12:38:38.408Z,69.77
2022-12-11T12:42:45.699Z,68.98
2022-12-11T12:46:54.772Z,69.46
2022-12-11T12:50:56.759Z,70.15
2022-12-11T12:54:59.976Z,69.08
2022-12-11T12:59:01.392Z,69.07
2022-12-11T13:03:12.979Z,69.85
2022-12-11T13:07:17.851Z,69.86
2022-12-11T13:11:20.601Z,71.06
2022-12-11T13:15:36.839Z,70.71
2022-12-11T13:19:42.801Z,70.04
2022-12-11T13:23:44.393Z,69.89
2022-12-11T13:27:45.808Z,70.11
2022-12-11T13:31:56.302Z,70.83
2022-12-11T13:36:24.745Z,70.24
2022-12-11T13:40:28.608Z,71.51
2022-12-11T13:44:32.197Z,73.15
2022-12-11T13:48:34.960Z,77.75
2022-12-11T13:52:37.723Z,80.43
2022-12-11T13:56:39.110Z,81.42
2022-12-11T14:00:40.576Z,82.62
2022-12-11T14:04:42.154Z,82.52
2022-12-11T14:08:45.085Z,80.83
2022-12-11T14:12:51.474Z,80.74
2022-12-11T14:16:53.067Z,80.04
2022-12-11T14:20:55.153Z,79.36
2022-12-11T14:24:58.775Z,79.46
2022-12-11T14:29:00.578Z,79.39
2022-12-11T14:33:04.498Z,79.84
2022-12-11T14:37:06.978Z,79.73
2022-12-11T14:41:12.735Z,81.08
2022-12-11T14:45:19.083Z,79.66
2022-12-11T14:49:22.658Z,79.07
2022-12-11T14:53:26.322Z,81.43
2022-12-11T14:57:30.796Z,81.83
2022-12-11T15:01:32.971Z,82.94
2022-12-11T15:05:40.509Z,82.89
2022-12-11T15:09:46.532Z,83.63
2022-12-11T15:13:51.941Z,82.59
2022-12-11T15:17:53.399Z,82.82
2022-12-11T15:21:55.291Z,83.31
2022-12-11T15:25:57.693Z,83.53
2022-12-11T15:30:00.415Z,82.60
2022-12-11T15:34:02.123Z,82.67
2022-12-11T15:38:03.889Z,81.61
2022-12-11T15:42:05.637Z,80.66
2022-12-11T15:46:08.456Z,79.21
2022-12-11T15:50:15.037Z,78.58
2022-12-11T15:54:16.422Z,76.47
2022-12-11T15:58:19.082Z,76.56
2022-12-11T16:02:22.175Z,76.84
2022-12-11T16:06:23.621Z,75.41
2022-12-11T16:10:25.250Z,76.16
2022-12-11T16:14:26.614Z,76.84
2022-12-11T16:18:29.405Z,76.94
2022-12-11T16:22:30.780Z,76.32
2022-12-11T16:26:32.205Z,77.64
2022-12-11T16:30:34.655Z,77.27
2022-12-11T16:34:37.435Z,77.16
2022-12-11T16:38:38.819Z,76.49
2022-12-11T16:42:40.218Z,76.62
2022-12-11T16:46:41.608Z,78.49
2022-12-11T16:50:44.359Z,78.83
2022-12-11T16:54:45.751Z,77.38
2022-12-11T16:58:47.591Z,76.36
2022-12-11T17:02:49.059Z,76.50
2022-12-11T17:06:51.854Z,77.08
2022-12-11T17:10:53.201Z,75.47
2022-12-11T17:14:54.691Z,74.38
2022-12-11T17:18:56.534Z,73.84
2022-12-11T17:22:59.277Z,72.13
2022-12-11T17:27:00.954Z,72.51
2022-12-11T17:31:03.615Z,72.14
2022-12-11T17:35:05.523Z,72.95
2022-12-11T17:39:08.276Z,71.75
2022-12-11T17:43:10.391Z,72.69
2022-12-11T17:47:11.729Z,73.13
2022-12-11T17:51:13.737Z,73.09
2022-12-11T17:55:16.911Z,73.67
2022-12-11T17:59:18.435Z,72.66
2022-12-11T18:03:19.990Z,71.82
2022-12-11T18:07:21.395Z,71.49
2022-12-11T18:11:24.270Z,72.00
2022-12-11T18:15:25.659Z,71.93
2022-12-11T18:19:27.106Z,71.51
2022-12-11T18:23:28.521Z,71.24
2022-12-11T18:27:31.254Z,71.73
2022-12-11T18:31:34.483Z,71.85
2022-12-11T18:35:39.253Z,69.81
2022-12-11T18:39:40.633Z,70.36
2022-12-11T18:43:43.422Z,71.78
2022-12-11T18:47:44.935Z,71.35
2022-12-11T18:51:46.295Z,71.08
2022-12-11T18:55:48.496Z,71.04
2022-12-11T18:59:51.806Z,71.66
2022-12-11T19:03:55.367Z,71.64
2022-12-11T19:08:00.427Z,72.52
2022-12-11T19:12:01.933Z,72.43
2022-12-11T19:16:04.920Z,71.16
2022-12-11T19:20:39.849Z,71.95
2022-12-11T19:24:28.337Z,70.80
2022-12-11T19:28:29.699Z,70.87
2022-12-11T19:32:36.275Z,72.02
2022-12-11T19:36:37.933Z,72.29
2022-12-11T19:40:40.436Z,72.46
2022-12-11T19:44:41.831Z,72.23
2022-12-11T19:48:44.907Z,72.87
2022-12-11T19:52:46.717Z,72.61
2022-12-11T19:56:48.146Z,73.69
2022-12-11T20:00:49.595Z,74.23
2022-12-11T20:04:52.413Z,74.51
2022-12-11T20:08:53.854Z,74.43
2022-12-11T20:12:55.252Z,73.75
2022-12-11T20:17:13.819Z,73.69
2022-12-11T20:21:18.031Z,74.55
2022-12-11T20:25:19.515Z,75.56
2022-12-11T20:29:21.054Z,75.88
2022-12-11T20:33:22.528Z,75.23
2022-12-11T20:37:25.337Z,75.43
2022-12-11T20:41:27.282Z,77.36
2022-12-11T20:45:28.752Z,77.96
2022-12-11T20:49:30.141Z,78.35
2022-12-11T20:53:33.697Z,78.60
2022-12-11T20:57:35.116Z,79.32
2022-12-11T21:01:36.499Z,78.28
2022-12-11T21:05:39.978Z,79.07
2022-12-11T21:09:42.706Z,80.20
2022-12-11T21:13:44.141Z,80.71
2022-12-11T21:17:45.494Z,80.90
2022-12-11T21:21:46.989Z,80.20
2022-12-11T21:25:50.553Z,80.67
2022-12-11T21:29:51.915Z,80.69
2022-12-11T21:33:53.353Z,80.23
2022-12-11T21:37:54.746Z,81.18
2022-12-11T21:41:57.493Z,81.48
2022-12-11T21:46:01.752Z,81.53
2022-12-11T21:50:04.476Z,82.13
2022-12-11T21:54:06.686Z,81.17
2022-12-11T21:58:09.481Z,80.63
2022-12-11T22:02:10.971Z,81.02
2022-12-11T22:06:12.400Z,81.32
2022-12-11T22:10:13.788Z,81.60
2022-12-11T22:14:17.538Z,82.26
2022-12-11T22:18:18.912Z,81.55
2022-12-11T22:22:20.364Z,82.02
2022-12-11T22:26:22.594Z,82.34
2022-12-11T22:30:25.339Z,82.01
2022-12-11T22:34:26.725Z,81.93
2022-12-11T22:38:28.091Z,82.11
2022-12-11T22:42:29.450Z,82.42
2022-12-11T22:46:32.199Z,82.28
2022-12-11T22:50:33.802Z,82.02
2022-12-11T22:54:37.511Z,82.40
2022-12-11T22:58:39.277Z,82.44
2022-12-11T23:02:42.068Z,82.21
2022-12-11T23:06:43.516Z,81.79
2022-12-11T23:10:45.266Z,82.12
2022-12-11T23:14:46.653Z,82.32
2022-12-11T23:18:49.424Z,82.20
2022-12-11T23:22:50.809Z,81.79
2022-12-11T23:26:52.206Z,82.87
2022-12-11T23:30:53.651Z,83.42
2022-12-11T23:34:56.436Z,82.97
2022-12-11T23:38:57.918Z,83.61
2022-12-11T23:42:59.266Z,82.65
2022-12-11T23:47:00.650Z,81.94
2022-12-11T23:51:04.254Z,82.50
2022-12-11T23:55:06.249Z,81.73
2022-12-11T23:59:07.609Z,81.13
